Time;durP1;ratioP1;P1;durP2;ratioP2;P2;SDS_P1;SDS_P2;PMS_P1;PMS_P2;Temp;Humidity;BMP_temperature;BMP_pressure;BME280_temperature;BME280_humidity;BME280_pressure;Samples;Min_cycle;Max_cycle;Signal;HPM_P1;HPM_P2
2023/04/17 00:01:42;;;;;;;52.17;35.38;;;8.90;99.90;;;;;;4660146;28;10000377;-72
2023/04/17 00:04:09;;;;;;;54.60;35.60;;;8.90;99.90;;;;;;5000895;28;20034;-72
2023/04/17 00:06:44;;;;;;;58.17;36.42;;;8.80;99.90;;;;;;5001611;28;20048;-72
2023/04/17 00:09:13;;;;;;;55.33;35.75;;;8.90;99.90;;;;;;5006658;28;20038;-72
2023/04/17 00:11:38;;;;;;;62.45;35.95;;;8.90;99.90;;;;;;4996394;28;20160;-72
2023/04/17 00:14:04;;;;;;;56.20;35.97;;;8.90;99.90;;;;;;4994572;28;20108;-73
2023/04/17 00:16:30;;;;;;;56.88;36.45;;;8.90;99.90;;;;;;4997736;28;20029;-73
2023/04/17 00:18:56;;;;;;;50.63;35.22;;;8.90;99.90;;;;;;4991571;28;20026;-73
2023/04/17 00:21:21;;;;;;;50.83;35.08;;;8.90;99.90;;;;;;5002412;28;20070;-73
2023/04/17 00:23:47;;;;;;;57.28;35.97;;;8.90;99.90;;;;;;5006515;28;20026;-73
2023/04/17 00:26:14;;;;;;;52.38;36.70;;;8.90;99.90;;;;;;5000765;28;20030;-72
2023/04/17 00:28:39;;;;;;;51.22;34.33;;;8.90;99.90;;;;;;5003004;28;20033;-73
2023/04/17 00:31:05;;;;;;;54.85;35.72;;;8.90;99.90;;;;;;5008038;28;20509;-72
2023/04/17 00:33:31;;;;;;;55.90;35.35;;;8.90;99.90;;;;;;4999112;28;20042;-73
2023/04/17 00:35:56;;;;;;;52.92;34.45;;;8.90;99.90;;;;;;5000854;28;20060;-73
2023/04/17 00:38:22;;;;;;;54.38;35.47;;;8.90;99.90;;;;;;5002117;28;20504;-72
2023/04/17 00:40:50;;;;;;;53.55;35.08;;;8.90;99.90;;;;;;5002564;28;20029;-73
2023/04/17 00:43:16;;;;;;;54.58;35.70;;;8.90;99.90;;;;;;4995608;28;20030;-72
2023/04/17 00:45:41;;;;;;;55.28;34.63;;;8.90;99.90;;;;;;4993953;28;20045;-73
2023/04/17 00:48:08;;;;;;;53.38;34.80;;;8.90;99.90;;;;;;4989393;28;20636;-73
2023/04/17 00:50:35;;;;;;;54.30;35.28;;;8.90;99.90;;;;;;4999607;28;20537;-72
2023/04/17 00:53:00;;;;;;;52.92;35.80;;;8.80;99.90;;;;;;5005060;28;20386;-73
2023/04/17 00:55:29;;;;;;;51.47;35.28;;;8.80;99.90;;;;;;5001318;28;20044;-73
2023/04/17 00:57:55;;;;;;;53.45;35.50;;;8.90;99.90;;;;;;4993101;28;20117;-73
2023/04/17 01:00:21;;;;;;;52.22;35.97;;;8.80;99.90;;;;;;4991562;28;20026;-73
2023/04/17 01:02:47;;;;;;;52.97;36.22;;;8.80;99.90;;;;;;5006675;28;20040;-73
2023/04/17 01:05:13;;;;;;;54.15;36.47;;;8.80;99.90;;;;;;5000369;28;20372;-72
2023/04/17 01:07:40;;;;;;;58.40;36.53;;;8.80;99.90;;;;;;4994219;28;20031;-73
2023/04/17 01:10:06;;;;;;;52.63;36.17;;;8.80;99.90;;;;;;5006206;28;20033;-73
2023/04/17 01:12:31;;;;;;;52.92;35.75;;;8.80;99.90;;;;;;5005932;28;20022;-73
2023/04/17 01:14:57;;;;;;;51.88;35.30;;;8.80;99.90;;;;;;5007592;28;20030;-73
2023/04/17 01:17:27;;;;;;;54.25;35.35;;;8.80;99.90;;;;;;4990756;28;20397;-72
2023/04/17 01:19:53;;;;;;;55.30;36.40;;;8.80;99.90;;;;;;5006001;28;20040;-72
2023/04/17 01:22:22;;;;;;;52.22;36.15;;;8.80;99.90;;;;;;4996292;28;20524;-72
2023/04/17 01:24:48;;;;;;;47.30;33.35;;;8.80;99.90;;;;;;5008420;28;20038;-72
2023/04/17 01:27:13;;;;;;;53.50;35.08;;;8.80;99.90;;;;;;4994274;28;20081;-72
2023/04/17 01:29:40;;;;;;;48.72;34.53;;;8.80;99.90;;;;;;4995605;28;20035;-72
2023/04/17 01:32:06;;;;;;;50.00;34.08;;;8.80;99.90;;;;;;4995945;28;20080;-72
2023/04/17 01:34:32;;;;;;;51.38;34.17;;;8.70;99.90;;;;;;5010910;28;20018;-73
2023/04/17 01:36:57;;;;;;;49.40;33.83;;;8.70;99.90;;;;;;5012643;28;20390;-72
2023/04/17 01:39:23;;;;;;;46.28;31.85;;;8.80;99.90;;;;;;5007157;28;20096;-72
2023/04/17 01:41:50;;;;;;;50.83;33.88;;;8.70;99.90;;;;;;5009136;28;20068;-72
2023/04/17 01:44:16;;;;;;;48.58;33.65;;;8.70;99.90;;;;;;5009411;28;20030;-73
2023/04/17 01:46:42;;;;;;;48.00;33.17;;;8.70;99.90;;;;;;4999226;28;20137;-73
2023/04/17 01:49:07;;;;;;;45.50;33.40;;;8.70;99.90;;;;;;4994373;28;20130;-73
2023/04/17 01:51:33;;;;;;;48.05;32.95;;;8.70;99.90;;;;;;5002852;28;20022;-72
2023/04/17 01:53:59;;;;;;;48.85;33.03;;;8.70;99.90;;;;;;5008969;28;20026;-72
2023/04/17 01:56:25;;;;;;;49.95;32.78;;;8.70;99.90;;;;;;5008531;28;20037;-72
2023/04/17 01:58:51;;;;;;;56.60;34.90;;;8.70;99.90;;;;;;5010672;28;20030;-73
2023/04/17 02:01:17;;;;;;;47.63;32.50;;;8.70;99.90;;;;;;4998074;28;20099;-72
2023/04/17 02:03:42;;;;;;;49.78;32.60;;;8.70;99.90;;;;;;5001814;28;20054;-72
2023/04/17 02:06:08;;;;;;;50.88;33.53;;;8.70;99.90;;;;;;4996959;28;20030;-72
2023/04/17 02:08:34;;;;;;;51.92;34.40;;;8.70;99.90;;;;;;5001695;28;20081;-72
2023/04/17 02:11:00;;;;;;;52.15;34.92;;;8.70;99.90;;;;;;5004346;28;20034;-73
2023/04/17 02:13:25;;;;;;;52.55;36.78;;;8.70;99.90;;;;;;4994437;28;20084;-73
2023/04/17 02:15:51;;;;;;;51.83;34.35;;;8.80;99.90;;;;;;4994635;28;20030;-73
2023/04/17 02:18:17;;;;;;;55.00;35.83;;;8.80;99.90;;;;;;5007118;28;20052;-73
2023/04/17 02:20:42;;;;;;;50.65;34.60;;;8.70;99.90;;;;;;4994409;28;20042;-73
2023/04/17 02:23:08;;;;;;;52.53;35.08;;;8.70;99.90;;;;;;5000389;28;20490;-72
2023/04/17 02:25:34;;;;;;;54.95;35.80;;;8.70;99.90;;;;;;5011412;28;20071;-73
2023/04/17 02:28:00;;;;;;;54.65;35.58;;;8.70;99.90;;;;;;5007686;28;20030;-73
2023/04/17 02:30:27;;;;;;;51.42;35.03;;;8.80;99.90;;;;;;5007918;28;20567;-73
2023/04/17 02:32:53;;;;;;;51.53;35.47;;;8.70;99.90;;;;;;5000065;28;20026;-73
2023/04/17 02:35:20;;;;;;;53.17;35.63;;;8.80;99.90;;;;;;4992185;28;20505;-72
2023/04/17 02:37:46;;;;;;;53.92;35.80;;;8.70;99.90;;;;;;4993986;28;20100;-73
2023/04/17 02:40:12;;;;;;;49.20;35.08;;;8.70;99.90;;;;;;5003271;28;20474;-72
2023/04/17 02:42:37;;;;;;;52.95;36.28;;;8.70;99.90;;;;;;4993462;28;20631;-73
2023/04/17 02:45:03;;;;;;;52.47;35.05;;;8.70;99.90;;;;;;4996108;28;20038;-73
2023/04/17 02:47:29;;;;;;;53.17;35.72;;;8.70;99.90;;;;;;4991015;28;20049;-72
2023/04/17 02:49:55;;;;;;;54.45;34.53;;;8.70;99.90;;;;;;4991067;28;20014;-72
2023/04/17 02:52:24;;;;;;;51.28;35.60;;;8.70;99.90;;;;;;5000778;28;20065;-72
2023/04/17 02:54:50;;;;;;;50.30;35.53;;;8.70;99.90;;;;;;5005422;28;20021;-73
2023/04/17 02:57:15;;;;;;;51.83;35.30;;;8.70;99.90;;;;;;4996234;28;20030;-72
2023/04/17 02:59:41;;;;;;;51.25;35.45;;;8.70;99.90;;;;;;5009122;28;20034;-72
2023/04/17 03:02:06;;;;;;;52.05;36.05;;;8.70;99.90;;;;;;5007683;28;20030;-72
2023/04/17 03:04:33;;;;;;;52.63;34.20;;;8.70;99.90;;;;;;5003483;28;20038;-72
2023/04/17 03:06:59;;;;;;;51.22;35.58;;;8.70;99.90;;;;;;4993238;28;20105;-72
2023/04/17 03:09:26;;;;;;;51.88;35.08;;;8.70;99.90;;;;;;5005405;28;20092;-73
2023/04/17 03:11:51;;;;;;;46.85;33.38;;;8.70;99.90;;;;;;5000817;28;20068;-72
2023/04/17 03:14:17;;;;;;;47.80;33.92;;;8.70;99.90;;;;;;4996810;28;20537;-72
2023/04/17 03:16:43;;;;;;;50.35;34.05;;;8.70;99.90;;;;;;4990735;28;20027;-72
2023/04/17 03:19:08;;;;;;;48.72;33.67;;;8.70;99.90;;;;;;5008602;28;20029;-73
2023/04/17 03:21:34;;;;;;;47.28;33.35;;;8.70;99.90;;;;;;4998430;28;20019;-73
2023/04/17 03:23:59;;;;;;;45.08;32.53;;;8.60;99.90;;;;;;4995698;28;22483;-73
2023/04/17 03:26:25;;;;;;;55.22;34.67;;;8.60;99.90;;;;;;5010174;28;20524;-73
2023/04/17 03:28:50;;;;;;;49.63;34.08;;;8.60;99.90;;;;;;5002691;28;20681;-72
2023/04/17 03:31:16;;;;;;;48.97;34.05;;;8.60;99.90;;;;;;5010035;28;20018;-73
2023/04/17 03:33:42;;;;;;;50.92;35.05;;;8.60;99.90;;;;;;5005118;28;20062;-73
2023/04/17 03:36:07;;;;;;;52.38;35.60;;;8.60;99.90;;;;;;4991612;28;20095;-73
2023/04/17 03:38:34;;;;;;;52.28;36.22;;;8.60;99.90;;;;;;5003696;28;20505;-72
2023/04/17 03:41:00;;;;;;;53.92;36.95;;;8.60;99.90;;;;;;5009880;28;20106;-72
2023/04/17 03:43:26;;;;;;;54.50;36.13;;;8.60;99.90;;;;;;5002575;28;20034;-73
2023/04/17 03:45:51;;;;;;;52.58;36.60;;;8.60;99.90;;;;;;4999120;28;20045;-73
2023/04/17 03:48:17;;;;;;;56.17;38.47;;;8.60;99.90;;;;;;5002842;28;20639;-74
2023/04/17 03:50:43;;;;;;;57.50;38.15;;;8.60;99.90;;;;;;5002514;28;20076;-72
2023/04/17 03:53:08;;;;;;;55.67;37.92;;;8.60;99.90;;;;;;5005886;28;20244;-72
2023/04/17 03:55:34;;;;;;;57.65;38.38;;;8.60;99.90;;;;;;5006011;28;20527;-72
2023/04/17 03:58:00;;;;;;;56.05;38.97;;;8.60;99.90;;;;;;4997564;28;20026;-73
2023/04/17 04:00:26;;;;;;;58.63;40.03;;;8.60;99.90;;;;;;5000150;28;20042;-72
2023/04/17 04:02:51;;;;;;;67.00;41.42;;;8.60;99.90;;;;;;4997123;28;20091;-72
2023/04/17 04:05:17;;;;;;;63.08;40.80;;;8.60;99.90;;;;;;5001612;28;20470;-72
2023/04/17 04:07:43;;;;;;;65.88;42.35;;;8.60;99.90;;;;;;4991752;28;20460;-72
2023/04/17 04:10:09;;;;;;;66.25;42.65;;;8.60;99.90;;;;;;4992984;28;20046;-72
2023/04/17 04:12:34;;;;;;;65.85;42.95;;;8.60;99.90;;;;;;5005798;28;20077;-72
2023/04/17 04:15:00;;;;;;;68.40;43.05;;;8.60;99.90;;;;;;5004182;28;20469;-73
2023/04/17 04:17:25;;;;;;;75.78;42.28;;;8.60;99.90;;;;;;5009047;28;20030;-72
2023/04/17 04:19:51;;;;;;;68.60;41.88;;;8.60;99.90;;;;;;5002640;28;20029;-73
2023/04/17 04:22:17;;;;;;;66.57;43.80;;;8.60;99.90;;;;;;4998207;28;20124;-72
2023/04/17 04:24:43;;;;;;;66.63;44.00;;;8.60;99.90;;;;;;4998129;28;20029;-72
2023/04/17 04:27:09;;;;;;;70.15;43.88;;;8.60;99.90;;;;;;4997829;28;20026;-72
2023/04/17 04:29:36;;;;;;;66.97;42.90;;;8.60;99.90;;;;;;5006651;28;20030;-73
2023/04/17 04:32:02;;;;;;;68.57;43.95;;;8.50;99.90;;;;;;4999817;28;20037;-72
2023/04/17 04:34:28;;;;;;;64.72;42.47;;;;;;;;;;5000598;28;20548;-72
2023/04/17 04:36:55;;;;;;;68.90;43.30;;;8.50;99.90;;;;;;4998573;28;20021;-73
2023/04/17 04:39:21;;;;;;;65.93;44.03;;;8.50;99.90;;;;;;4997245;28;20079;-73
2023/04/17 04:41:49;;;;;;;66.32;43.83;;;8.50;99.90;;;;;;5001579;28;20025;-72
2023/04/17 04:44:15;;;;;;;65.03;42.22;;;8.60;99.90;;;;;;5001222;28;20490;-72
2023/04/17 04:46:40;;;;;;;65.07;43.05;;;8.60;99.90;;;;;;4999298;28;20108;-72
2023/04/17 04:49:06;;;;;;;65.22;42.17;;;8.50;99.90;;;;;;4999727;28;20437;-73
2023/04/17 04:51:32;;;;;;;64.43;42.25;;;8.60;99.90;;;;;;5001892;28;20034;-73
2023/04/17 04:53:58;;;;;;;59.95;41.67;;;8.50;99.90;;;;;;5002230;28;20029;-72
2023/04/17 04:56:24;;;;;;;64.45;41.45;;;8.60;99.90;;;;;;4996457;28;20378;-73
2023/04/17 04:58:50;;;;;;;59.88;40.03;;;;;;;;;;4998729;28;20665;-72
2023/04/17 05:01:16;;;;;;;62.97;40.53;;;8.60;99.90;;;;;;4987543;28;20030;-73
2023/04/17 05:03:43;;;;;;;65.50;40.53;;;8.60;99.90;;;;;;4991909;28;20049;-73
2023/04/17 05:06:10;;;;;;;62.17;41.33;;;8.60;99.90;;;;;;4989342;28;20034;-72
2023/04/17 05:08:36;;;;;;;57.92;40.15;;;8.60;99.90;;;;;;4988205;28;20034;-73
2023/04/17 05:11:02;;;;;;;60.80;40.50;;;8.70;99.90;;;;;;4988896;28;20033;-72
2023/04/17 05:13:31;;;;;;;60.47;39.70;;;8.70;99.90;;;;;;4993010;28;20079;-72
2023/04/17 05:15:56;;;;;;;59.35;39.03;;;8.60;99.90;;;;;;4992369;28;20143;-72
2023/04/17 05:18:22;;;;;;;60.45;38.60;;;8.60;99.90;;;;;;4999360;28;20057;-73
2023/04/17 05:20:47;;;;;;;57.17;39.20;;;8.60;99.90;;;;;;4988157;28;20391;-72
2023/04/17 05:23:13;;;;;;;57.42;37.95;;;8.60;99.90;;;;;;4993500;28;20038;-72
2023/04/17 05:25:39;;;;;;;61.97;38.65;;;8.60;99.90;;;;;;4999798;28;20034;-72
2023/04/17 05:28:05;;;;;;;58.90;38.75;;;8.60;99.90;;;;;;4991063;28;20036;-73
2023/04/17 05:30:32;;;;;;;63.40;38.88;;;8.60;99.90;;;;;;4996875;28;20026;-72
2023/04/17 05:32:59;;;;;;;54.17;36.85;;;8.60;99.90;;;;;;4996309;28;20030;-72
2023/04/17 05:35:26;;;;;;;59.10;39.25;;;8.60;99.90;;;;;;4997116;28;20482;-72
2023/04/17 05:37:52;;;;;;;61.17;38.38;;;8.60;99.90;;;;;;4990490;28;20033;-72
2023/04/17 05:40:18;;;;;;;57.38;38.08;;;8.60;99.90;;;;;;4999971;28;20448;-72
2023/04/17 05:42:44;;;;;;;52.53;36.20;;;8.60;99.90;;;;;;4998384;28;20161;-73
2023/04/17 05:45:16;;;;;;;56.05;36.72;;;8.60;99.90;;;;;;5001941;28;20545;-73
2023/04/17 05:47:42;;;;;;;60.85;37.95;;;8.70;99.90;;;;;;4993673;28;20046;-72
2023/04/17 05:50:08;;;;;;;56.80;37.88;;;8.70;99.90;;;;;;4991666;28;20031;-73
2023/04/17 05:52:35;;;;;;;54.55;36.72;;;;;;;;;;4996040;28;20153;-73
2023/04/17 05:55:01;;;;;;;59.63;38.33;;;8.70;99.90;;;;;;4992082;28;20030;-73
2023/04/17 05:57:26;;;;;;;53.72;36.67;;;8.70;99.90;;;;;;4998464;28;20046;-73
2023/04/17 05:59:52;;;;;;;52.88;36.08;;;8.70;99.90;;;;;;4991379;28;20030;-73
2023/04/17 06:02:17;;;;;;;54.17;37.97;;;8.60;99.90;;;;;;4994243;28;20038;-73
2023/04/17 06:04:43;;;;;;;55.80;36.50;;;8.60;99.90;;;;;;4994428;28;20120;-73
2023/04/17 06:07:10;;;;;;;53.53;35.08;;;8.60;99.90;;;;;;4996337;28;20530;-73
2023/04/17 06:09:36;;;;;;;57.20;35.92;;;8.60;99.90;;;;;;4993477;28;20030;-73
2023/04/17 06:12:05;;;;;;;52.25;34.90;;;8.60;99.90;;;;;;4998218;28;20046;-73
2023/04/17 06:14:30;;;;;;;51.65;33.78;;;8.60;99.90;;;;;;4992715;28;20424;-73
2023/04/17 06:16:56;;;;;;;51.10;35.25;;;8.50;99.90;;;;;;4996760;28;20422;-73
2023/04/17 06:19:23;;;;;;;54.03;34.47;;;8.50;99.90;;;;;;5001969;28;20034;-73
2023/04/17 06:21:49;;;;;;;53.38;35.90;;;8.50;99.90;;;;;;5004168;28;20040;-73
2023/04/17 06:24:15;;;;;;;52.95;35.85;;;8.50;99.90;;;;;;4993556;28;20026;-72
2023/04/17 06:26:40;;;;;;;56.42;36.30;;;8.50;99.90;;;;;;5003272;28;20067;-73
2023/04/17 06:29:07;;;;;;;51.00;34.22;;;8.50;99.90;;;;;;5001962;28;20026;-72
2023/04/17 06:31:33;;;;;;;51.17;34.17;;;8.60;99.90;;;;;;5005504;28;20056;-73
2023/04/17 06:33:58;;;;;;;52.40;34.75;;;8.60;99.90;;;;;;5004255;28;20474;-73
2023/04/17 06:36:25;;;;;;;51.00;34.55;;;8.60;99.90;;;;;;5000032;28;20348;-72
2023/04/17 06:38:51;;;;;;;56.85;34.95;;;8.60;99.90;;;;;;5000085;28;20521;-73
2023/04/17 06:41:17;;;;;;;51.85;33.97;;;8.60;99.90;;;;;;4999017;28;20035;-73
2023/04/17 06:43:43;;;;;;;51.85;34.22;;;8.60;99.90;;;;;;4990783;28;20399;-72
2023/04/17 06:46:08;;;;;;;46.92;32.55;;;8.70;99.90;;;;;;5004884;28;20533;-73
2023/04/17 06:48:34;;;;;;;48.15;31.80;;;8.70;99.90;;;;;;5007838;28;20037;-73
2023/04/17 06:51:00;;;;;;;48.00;31.73;;;8.60;99.90;;;;;;4997488;28;20113;-73
2023/04/17 06:53:25;;;;;;;50.45;32.15;;;8.60;99.90;;;;;;5006249;28;20048;-73
2023/04/17 06:55:53;;;;;;;47.78;32.80;;;8.70;99.90;;;;;;5001511;28;20359;-73
2023/04/17 06:58:18;;;;;;;49.95;33.42;;;8.80;99.90;;;;;;5003918;28;20067;-72
2023/04/17 07:00:44;;;;;;;50.88;32.70;;;8.90;99.90;;;;;;4993678;28;20062;-72
2023/04/17 07:03:12;;;;;;;42.47;29.30;;;9.00;99.90;;;;;;4990956;28;20046;-74
2023/04/17 07:05:38;;;;;;;40.58;28.98;;;9.00;99.90;;;;;;4998262;28;20037;-73
2023/04/17 07:08:04;;;;;;;40.70;29.33;;;9.00;99.90;;;;;;5003759;28;20037;-72
2023/04/17 07:10:29;;;;;;;44.35;29.58;;;9.00;99.90;;;;;;4992154;28;20023;-72
2023/04/17 07:12:55;;;;;;;46.05;30.50;;;9.00;99.90;;;;;;4999811;28;20127;-72
2023/04/17 07:15:21;;;;;;;43.72;30.23;;;9.10;99.90;;;;;;5003755;28;20034;-73
2023/04/17 07:17:46;;;;;;;43.30;29.13;;;9.10;99.90;;;;;;5007844;28;20117;-72
2023/04/17 07:20:12;;;;;;;46.10;30.30;;;9.20;99.90;;;;;;5004781;28;20490;-73
2023/04/17 07:22:38;;;;;;;42.90;29.85;;;9.20;99.90;;;;;;4998349;28;20034;-73
2023/04/17 07:25:05;;;;;;;39.42;28.20;;;9.20;99.90;;;;;;4999039;28;20037;-72
2023/04/17 07:27:30;;;;;;;40.08;27.67;;;9.30;99.90;;;;;;4996220;28;20030;-73
2023/04/17 07:29:56;;;;;;;40.35;28.38;;;9.30;99.90;;;;;;5001275;28;20025;-74
2023/04/17 07:32:24;;;;;;;40.30;29.38;;;9.30;99.90;;;;;;4997757;28;20097;-74
2023/04/17 07:34:50;;;;;;;41.50;29.25;;;9.30;99.90;;;;;;4999278;28;20054;-74
2023/04/17 07:37:16;;;;;;;42.15;29.02;;;9.30;99.90;;;;;;4999136;28;20068;-74
2023/04/17 07:39:41;;;;;;;38.35;25.48;;;9.50;99.90;;;;;;4996723;28;20434;-74
2023/04/17 07:42:07;;;;;;;34.35;24.27;;;9.50;99.90;;;;;;4998823;28;20360;-74
2023/04/17 07:44:39;;;;;;;35.10;24.60;;;9.50;99.90;;;;;;4998232;28;20034;-74
2023/04/17 07:47:05;;;;;;;37.80;25.25;;;9.50;99.90;;;;;;4997782;28;20053;-74
2023/04/17 07:49:31;;;;;;;43.13;25.45;;;9.50;99.90;;;;;;4997221;28;20064;-74
2023/04/17 07:51:56;;;;;;;39.35;25.48;;;9.50;99.90;;;;;;4995506;28;20022;-75
2023/04/17 07:54:22;;;;;;;37.70;24.80;;;9.70;99.90;;;;;;5000490;28;20224;-74
2023/04/17 07:56:50;;;;;;;36.47;26.27;;;9.70;99.90;;;;;;4991545;28;20073;-75
2023/04/17 07:59:16;;;;;;;38.58;26.27;;;9.80;99.90;;;;;;4992450;28;20030;-74
2023/04/17 08:01:41;;;;;;;33.53;23.52;;;9.90;99.90;;;;;;4992624;28;20493;-73
2023/04/17 08:04:07;;;;;;;35.22;24.58;;;9.90;99.90;;;;;;4990200;28;20267;-73
2023/04/17 08:06:33;;;;;;;33.85;23.25;;;10.00;99.90;;;;;;4996303;28;20023;-75
2023/04/17 08:09:03;;;;;;;35.40;22.63;;;10.10;99.90;;;;;;4989501;28;20122;-74
2023/04/17 08:11:29;;;;;;;36.13;24.52;;;10.20;99.90;;;;;;4997355;28;20421;-74
2023/04/17 08:13:54;;;;;;;32.10;23.05;;;10.30;99.90;;;;;;4987543;28;20022;-72
2023/04/17 08:16:20;;;;;;;32.92;21.98;;;10.20;99.90;;;;;;4993951;28;20030;-74
2023/04/17 08:18:46;;;;;;;28.08;19.88;;;10.10;99.90;;;;;;4999885;28;20034;-74
2023/04/17 08:21:11;;;;;;;28.83;21.23;;;10.00;99.90;;;;;;4993526;28;20041;-75
2023/04/17 08:23:37;;;;;;;31.58;22.13;;;9.90;99.90;;;;;;4995581;28;20103;-74
2023/04/17 08:26:03;;;;;;;30.50;21.65;;;9.90;99.90;;;;;;4995128;28;20486;-75
2023/04/17 08:28:28;;;;;;;28.05;19.73;;;9.90;99.90;;;;;;4997303;28;20029;-73
2023/04/17 08:30:54;;;;;;;27.60;20.60;;;9.90;99.90;;;;;;4995267;28;20022;-74
2023/04/17 08:33:20;;;;;;;32.05;20.50;;;9.80;99.90;;;;;;4986988;28;20033;-73
2023/04/17 08:35:46;;;;;;;28.23;20.23;;;9.80;99.90;;;;;;4998324;28;20021;-74
2023/04/17 08:38:13;;;;;;;26.13;19.58;;;9.80;99.90;;;;;;4996698;28;20356;-73
2023/04/17 08:40:45;;;;;;;28.92;19.80;;;9.70;99.90;;;;;;4992385;28;20226;-75
2023/04/17 08:43:15;;;;;;;26.08;19.83;;;9.70;99.90;;;;;;4996629;28;20049;-74
2023/04/17 08:45:55;;;;;;;25.70;19.00;;;9.90;99.90;;;;;;4990917;28;20042;-73
2023/04/17 08:48:22;;;;;;;29.13;19.58;;;10.10;99.90;;;;;;4995543;28;20046;-74
2023/04/17 08:50:49;;;;;;;29.05;20.67;;;10.40;99.90;;;;;;4990148;28;20026;-73
2023/04/17 08:53:16;;;;;;;30.77;19.75;;;10.50;99.90;;;;;;4990423;28;20027;-74
2023/04/17 08:55:43;;;;;;;23.83;18.70;;;10.70;99.90;;;;;;5003813;28;20049;-74
2023/04/17 08:58:09;;;;;;;24.27;17.58;;;10.70;99.90;;;;;;4999336;28;20243;-74
2023/04/17 09:00:36;;;;;;;26.20;17.38;;;10.70;99.90;;;;;;4996288;28;20116;-75
2023/04/17 09:03:04;;;;;;;21.92;16.65;;;10.80;99.90;;;;;;4992248;28;20053;-74
2023/04/17 09:05:35;;;;;;;20.33;14.20;;;11.00;99.90;;;;;;4995832;28;20113;-74
2023/04/17 09:08:22;;;;;;;24.35;15.63;;;11.10;99.90;;;;;;4990897;28;20508;-74
2023/04/17 09:10:53;;;;;;;20.02;15.70;;;11.30;99.90;;;;;;4997534;28;20022;-73
2023/04/17 09:13:23;;;;;;;20.77;14.93;;;11.40;99.90;;;;;;4995425;28;20028;-74
2023/04/17 09:16:04;;;;;;;20.98;15.30;;;11.50;99.90;;;;;;4988563;28;20549;-73
2023/04/17 09:18:31;;;;;;;20.35;14.38;;;11.40;99.90;;;;;;4988911;28;20030;-72
2023/04/17 09:21:01;;;;;;;18.58;14.63;;;11.60;99.90;;;;;;5002687;28;20033;-74
2023/04/17 09:23:28;;;;;;;20.45;14.23;;;11.80;99.90;;;;;;4994284;28;20526;-75
2023/04/17 09:26:12;;;;;;;18.63;14.25;;;11.90;99.90;;;;;;4994706;28;20505;-75
2023/04/17 09:28:38;;;;;;;18.33;14.18;;;12.00;99.90;;;;;;4995695;28;20034;-74
2023/04/17 09:31:27;;;;;;;20.08;15.30;;;11.90;99.90;;;;;;4998064;28;20497;-74
2023/04/17 09:34:11;;;;;;;19.73;14.07;;;11.60;99.90;;;;;;4998199;28;20022;-75
2023/04/17 09:36:40;;;;;;;19.48;14.00;;;11.50;99.90;;;;;;4993756;28;20142;-74
2023/04/17 09:39:19;;;;;;;17.05;13.50;;;11.50;99.90;;;;;;4993737;28;20119;-74
2023/04/17 09:41:44;;;;;;;18.67;12.98;;;11.60;99.90;;;;;;5002962;28;20037;-74
2023/04/17 09:44:11;;;;;;;13.57;10.57;;;11.50;99.90;;;;;;4994920;28;20121;-74
2023/04/17 09:46:39;;;;;;;14.95;11.13;;;11.40;99.90;;;;;;4994266;28;20053;-74
2023/04/17 09:49:32;;;;;;;18.42;10.95;;;11.50;99.90;;;;;;4999287;28;20116;-74
2023/04/17 09:51:58;;;;;;;16.17;11.07;;;11.70;99.90;;;;;;4999329;28;20087;-73
2023/04/17 09:54:24;;;;;;;15.13;11.65;;;11.60;99.90;;;;;;5004239;28;20061;-74
2023/04/17 09:56:54;;;;;;;14.82;11.70;;;11.40;99.90;;;;;;5002393;28;20068;-74
2023/04/17 09:59:22;;;;;;;14.23;11.07;;;11.60;99.90;;;;;;4995133;28;20053;-74
2023/04/17 10:01:49;;;;;;;14.18;10.52;;;11.70;99.90;;;;;;4997285;28;20029;-74
2023/04/17 10:04:14;;;;;;;16.92;10.45;;;11.80;99.90;;;;;;5000323;28;20037;-74
2023/04/17 10:06:40;;;;;;;14.90;11.30;;;12.00;99.90;;;;;;4997479;28;20025;-74
2023/04/17 10:09:07;;;;;;;17.70;11.55;;;12.10;99.90;;;;;;4997249;28;20029;-74
2023/04/17 10:11:37;;;;;;;17.40;11.63;;;12.20;99.90;;;;;;5006334;28;20409;-74
2023/04/17 10:14:19;;;;;;;15.75;10.77;;;12.30;99.90;;;;;;5000850;28;20022;-74
2023/04/17 10:16:46;;;;;;;16.33;11.35;;;12.40;99.90;;;;;;5004403;28;20022;-74
2023/04/17 10:19:28;;;;;;;17.15;11.65;;;12.40;99.90;;;;;;4996919;28;20153;-74
2023/04/17 10:22:18;;;;;;;14.98;11.32;;;12.50;99.90;;;;;;5001857;28;20425;-74
2023/04/17 10:24:46;;;;;;;15.30;10.68;;;12.70;99.90;;;;;;4996653;28;20030;-74
2023/04/17 10:27:26;;;;;;;15.73;11.50;;;12.40;99.90;;;;;;4994778;28;20042;-75
2023/04/17 10:29:55;;;;;;;14.50;10.98;;;12.30;99.90;;;;;;4990843;28;20022;-74
2023/04/17 10:32:25;;;;;;;16.63;11.00;;;12.30;99.90;;;;;;4993043;28;20493;-74
2023/04/17 10:34:52;;;;;;;15.57;10.50;;;12.40;99.90;;;;;;4993916;28;20386;-75
2023/04/17 10:37:18;;;;;;;15.43;9.70;;;12.40;99.90;;;;;;5001816;28;20034;-74
2023/04/17 10:39:53;;;;;;;15.07;11.43;;;12.40;99.90;;;;;;4994575;28;20060;-74
2023/04/17 10:42:21;;;;;;;16.48;10.35;;;12.40;99.90;;;;;;5002602;28;20089;-74
2023/04/17 10:44:47;;;;;;;18.50;11.55;;;12.50;99.90;;;;;;5000636;28;20480;-74
2023/04/17 10:47:13;;;;;;;14.10;11.55;;;12.70;99.90;;;;;;5001536;28;21044;-75
2023/04/17 10:49:50;;;;;;;16.92;10.68;;;12.70;99.90;;;;;;4997994;28;20021;-75
2023/04/17 10:52:37;;;;;;;12.05;9.55;;;12.70;99.90;;;;;;4994494;28;20031;-75
2023/04/17 10:55:05;;;;;;;14.95;11.25;;;12.90;99.90;;;;;;4996608;28;20026;-75
2023/04/17 10:57:53;;;;;;;14.60;10.65;;;13.00;99.90;;;;;;4999343;28;20037;-74
2023/04/17 11:00:26;;;;;;;16.23;11.35;;;13.10;99.90;;;;;;5002664;28;20100;-75
2023/04/17 11:02:51;;;;;;;18.02;11.40;;;13.00;99.90;;;;;;4999775;28;20152;-75
2023/04/17 11:05:19;;;;;;;12.25;9.95;;;13.10;99.90;;;;;;4992809;28;20133;-75
2023/04/17 11:07:49;;;;;;;14.52;9.95;;;13.10;99.90;;;;;;5001579;28;20456;-75
2023/04/17 11:10:16;;;;;;;14.77;9.82;;;13.20;99.90;;;;;;4996277;28;20394;-75
2023/04/17 11:13:01;;;;;;;14.10;8.80;;;13.20;99.90;;;;;;4996503;28;20049;-76
2023/04/17 11:15:28;;;;;;;14.98;9.18;;;13.30;99.90;;;;;;4998129;28;20567;-74
2023/04/17 11:17:55;;;;;;;15.70;9.50;;;13.30;99.90;;;;;;5001290;28;20100;-74
2023/04/17 11:20:22;;;;;;;15.63;9.52;;;13.30;99.90;;;;;;5006529;28;20485;-74
2023/04/17 11:22:48;;;;;;;15.82;9.50;;;13.40;99.90;;;;;;5009083;28;20034;-74
2023/04/17 11:25:30;;;;;;;17.67;9.80;;;13.40;99.90;;;;;;4993979;28;20026;-74
2023/04/17 11:27:57;;;;;;;14.18;9.50;;;13.40;99.90;;;;;;5000590;28;20057;-74
2023/04/17 11:30:33;;;;;;;12.43;9.10;;;13.20;99.90;;;;;;5003605;28;20520;-74
2023/04/17 11:33:01;;;;;;;12.43;8.57;;;13.00;99.90;;;;;;5004386;28;20026;-75
2023/04/17 11:35:30;;;;;;;11.73;8.30;;;12.90;99.90;;;;;;5003421;28;20026;-73
2023/04/17 11:38:21;;;;;;;15.40;8.85;;;12.80;99.90;;;;;;5002211;28;20570;-74
2023/04/17 11:40:57;;;;;;;13.13;8.05;;;12.80;99.90;;;;;;4994454;28;20033;-73
2023/04/17 11:43:24;;;;;;;14.45;8.30;;;12.70;99.90;;;;;;4999297;28;20196;-72
2023/04/17 11:45:52;;;;;;;13.18;7.88;;;12.70;99.90;;;;;;4998220;28;20050;-73
2023/04/17 11:48:28;;;;;;;12.48;8.30;;;12.80;99.90;;;;;;5001257;28;20034;-72
2023/04/17 11:51:00;;;;;;;10.98;7.18;;;12.80;99.90;;;;;;5001017;28;20539;-73
2023/04/17 11:53:26;;;;;;;11.00;7.80;;;12.90;99.90;;;;;;4994451;28;20095;-73
2023/04/17 11:56:15;;;;;;;12.82;8.73;;;12.80;99.90;;;;;;4999063;28;20025;-72
2023/04/17 11:58:56;;;;;;;15.35;8.43;;;12.70;99.90;;;;;;5002564;28;20034;-73
2023/04/17 12:01:27;;;;;;;13.07;8.48;;;12.80;99.90;;;;;;5004936;28;20053;-74
2023/04/17 12:03:55;;;;;;;11.98;7.85;;;12.90;99.90;;;;;;5000370;28;20064;-74
2023/04/17 12:06:21;;;;;;;18.27;8.77;;;12.70;99.90;;;;;;4995490;28;20041;-74
2023/04/17 12:08:50;;;;;;;11.70;8.40;;;12.60;99.90;;;;;;5004577;28;20040;-74
2023/04/17 12:11:29;;;;;;;12.40;7.97;;;12.70;99.90;;;;;;5000365;28;20056;-73
2023/04/17 12:13:55;;;;;;;15.05;8.50;;;12.80;99.90;;;;;;5000978;28;20031;-72
2023/04/17 12:16:23;;;;;;;11.32;7.68;;;12.90;99.90;;;;;;5002765;28;20044;-73
2023/04/17 12:18:49;;;;;;;13.77;8.43;;;13.10;99.90;;;;;;5005602;28;20497;-73
2023/04/17 12:21:15;;;;;;;13.73;8.18;;;13.30;99.90;;;;;;4995260;28;20033;-72
2023/04/17 12:23:41;;;;;;;14.95;8.38;;;13.60;99.90;;;;;;5005195;28;20037;-72
2023/04/17 12:26:07;;;;;;;14.15;8.05;;;13.80;99.90;;;;;;5001337;28;20735;-73
2023/04/17 12:28:33;;;;;;;11.45;7.88;;;13.80;99.90;;;;;;4993958;28;20048;-74
2023/04/17 12:30:59;;;;;;;11.98;8.23;;;13.60;99.90;;;;;;4998417;28;20478;-72
2023/04/17 12:33:25;;;;;;;14.35;8.00;;;13.50;99.90;;;;;;4993156;28;20019;-73
2023/04/17 12:35:50;;;;;;;10.82;7.45;;;13.60;99.90;;;;;;4997338;28;20030;-72
2023/04/17 12:38:16;;;;;;;13.93;8.38;;;13.70;99.90;;;;;;4998477;28;20038;-72